Time;durP1;ratioP1;P1;durP2;ratioP2;P2;SDS_P1;SDS_P2;PMS_P1;PMS_P2;Temp;Humidity;BMP_temperature;BMP_pressure;BME280_temperature;BME280_humidity;BME280_pressure;Samples;Min_cycle;Max_cycle;Signal;HPM_P1;HPM_P2
2023/06/10 00:02:47;;;;;;;2.47;1.60;;;;;;;19.75;77.29;100170.66;10211964;28;96984;-79
2023/06/10 00:07:55;;;;;;;2.47;1.30;;;;;;;19.60;77.75;100158.50;10249817;28;96885;-79
2023/06/10 00:12:58;;;;;;;2.00;1.30;;;;;;;19.48;78.43;100161.28;10251167;28;97959;-79
2023/06/10 00:18:02;;;;;;;2.10;1.58;;;;;;;19.42;78.78;100167.09;10249030;28;96802;-79
2023/06/10 00:23:09;;;;;;;2.73;1.63;;;;;;;19.42;78.12;100169.78;10249573;28;96709;-79
2023/06/10 00:28:13;;;;;;;3.13;1.40;;;;;;;19.43;77.96;100160.78;10228244;28;97630;-79
2023/06/10 00:33:16;;;;;;;3.17;1.60;;;;;;;19.28;78.02;100152.97;10209393;28;96714;-78
2023/06/10 00:38:21;;;;;;;1.75;1.30;;;;;;;19.24;78.11;100148.00;10209704;28;97304;-79
2023/06/10 00:43:24;;;;;;;3.22;1.63;;;;;;;19.21;78.43;100151.75;10209235;28;96779;-78
2023/06/10 00:48:28;;;;;;;2.95;1.30;;;;;;;19.16;78.49;100153.06;10208658;28;96896;-79
2023/06/10 00:53:33;;;;;;;1.70;1.20;;;;;;;19.19;78.47;100153.69;10209757;28;96924;-79
2023/06/10 00:58:37;;;;;;;3.42;1.45;;;;;;;19.21;78.36;100154.44;10248713;28;96709;-79
2023/06/10 01:03:40;;;;;;;2.30;1.50;;;;;;;19.24;78.39;100166.66;10239185;28;96760;-79
2023/06/10 01:08:57;;;;;;;2.10;1.42;;;;;;;19.22;78.19;100156.13;10207691;28;97671;-79
2023/06/10 01:14:01;;;;;;;2.33;1.40;;;;;;;19.25;78.33;100147.88;10209082;28;96734;-79
2023/06/10 01:19:04;;;;;;;2.38;1.38;;;;;;;19.12;78.62;100143.59;10208247;28;96750;-78
2023/06/10 01:24:10;;;;;;;3.40;1.67;;;;;;;19.14;78.79;100152.34;10207994;28;96682;-79
2023/06/10 01:29:20;;;;;;;3.35;1.63;;;;;;;19.19;78.71;100144.81;10208935;28;96661;-78
2023/06/10 01:34:25;;;;;;;2.00;1.50;;;;;;;19.27;78.53;100150.41;10207848;28;97755;-78
2023/06/10 01:39:31;;;;;;;3.08;1.50;;;;;;;19.16;78.87;100140.56;10207910;28;97852;-79
2023/06/10 01:44:35;;;;;;;3.45;1.63;;;;;;;19.02;79.39;100140.78;10208247;28;96663;-78
2023/06/10 01:49:38;;;;;;;2.20;1.70;;;;;;;18.97;79.30;100139.44;10167457;28;97314;-79
2023/06/10 01:54:43;;;;;;;3.47;1.65;;;;;;;18.90;79.42;100136.38;10167539;28;96753;-79
2023/06/10 01:59:46;;;;;;;2.30;1.70;;;;;;;18.93;79.16;100144.16;10171444;28;96812;-78
2023/06/10 02:04:50;;;;;;;2.70;1.48;;;;;;;19.01;78.91;100138.22;10200351;28;96840;-78
2023/06/10 02:09:55;;;;;;;2.13;1.40;;;;;;;18.95;79.03;100144.88;10214096;28;97683;-79
2023/06/10 02:14:58;;;;;;;2.10;1.40;;;;;;;19.03;78.88;100144.28;10214059;28;97491;-78
2023/06/10 02:20:04;;;;;;;4.68;1.65;;;;;;;18.94;79.12;100150.31;10213938;28;96788;-78
2023/06/10 02:25:09;;;;;;;3.10;1.50;;;;;;;18.92;79.25;100139.75;10213586;28;96557;-78
2023/06/10 02:30:14;;;;;;;2.88;1.60;;;;;;;18.74;79.68;100149.16;10213678;28;98032;-79
2023/06/10 02:35:18;;;;;;;2.13;1.57;;;;;;;18.76;79.80;100146.38;10213531;28;96902;-79
2023/06/10 02:40:22;;;;;;;1.87;1.40;;;;;;;18.65;80.08;100146.31;10213808;28;96701;-79
2023/06/10 02:45:26;;;;;;;3.55;1.30;;;;;;;18.76;79.70;100141.03;10212582;28;96669;-79
2023/06/10 02:50:29;;;;;;;2.03;1.63;;;;;;;18.75;79.55;100139.34;10211807;28;96779;-79
2023/06/10 02:55:35;;;;;;;4.03;1.40;;;;;;;18.71;79.42;100149.41;10212886;28;96887;-79
2023/06/10 03:00:40;;;;;;;2.10;1.20;;;;;;;18.68;79.62;100160.25;10212700;28;97781;-79
2023/06/10 03:05:43;;;;;;;2.40;1.42;;;;;;;18.84;78.98;100154.63;10211851;28;97545;-79
2023/06/10 03:10:48;;;;;;;2.47;1.40;;;;;;;18.77;79.02;100178.25;10212518;28;96647;-79
2023/06/10 03:15:51;;;;;;;2.65;1.52;;;;;;;18.76;79.40;100175.69;10211796;28;96781;-79
2023/06/10 03:20:55;;;;;;;1.33;1.00;;;;;;;18.77;79.40;100167.59;10211765;28;96693;-79
2023/06/10 03:26:00;;;;;;;2.33;1.23;;;;;;;18.77;79.34;100180.91;10212624;28;97431;-79
2023/06/10 03:31:03;;;;;;;1.50;1.13;;;;;;;18.64;79.86;100176.59;10212090;28;97723;-79
2023/06/10 03:36:07;;;;;;;2.20;1.20;;;;;;;18.67;79.70;100182.56;10211477;28;96821;-78
2023/06/10 03:41:12;;;;;;;1.58;1.48;;;;;;;18.75;79.73;100185.50;10210108;28;97788;-78
2023/06/10 03:46:15;;;;;;;;;;;;;;;18.73;80.14;100191.94;10211626;28;96619;-79
2023/06/10 03:51:18;;;;;;;2.70;1.35;;;;;;;18.89;79.58;100189.81;10211635;28;97932;-79
2023/06/10 03:56:23;;;;;;;4.15;1.30;;;;;;;18.98;79.45;100178.47;10210553;28;96999;-78
2023/06/10 04:01:27;;;;;;;1.38;1.25;;;;;;;18.92;79.62;100179.75;10211035;28;96689;-79
2023/06/10 04:06:31;;;;;;;2.75;1.65;;;;;;;18.96;79.50;100193.72;10209727;28;96785;-78
2023/06/10 04:11:36;;;;;;;1.75;1.15;;;;;;;18.97;79.51;100182.94;10210187;28;96906;-78
2023/06/10 04:16:40;;;;;;;2.15;1.83;;;;;;;18.95;79.78;100189.38;10210759;28;96742;-78
2023/06/10 04:21:44;;;;;;;1.63;1.42;;;;;;;18.96;79.87;100186.56;10209960;28;97581;-79
2023/06/10 04:26:48;;;;;;;1.67;1.17;;;;;;;19.07;79.59;100191.97;10209876;28;96627;-79
2023/06/10 04:31:51;;;;;;;;;;;;;;;19.03;79.81;100205.63;10209353;28;96780;-78
2023/06/10 04:36:55;;;;;;;2.22;1.30;;;;;;;19.06;79.65;100210.75;10209993;28;96758;-79
2023/06/10 04:42:00;;;;;;;1.55;1.20;;;;;;;18.91;79.95;100203.88;10209429;28;97612;-79
2023/06/10 04:47:03;;;;;;;2.20;1.40;;;;;;;18.87;80.28;100205.09;10209497;28;97607;-79
2023/06/10 04:52:07;;;;;;;2.87;1.30;;;;;;;18.69;80.74;100206.44;10209316;28;96696;-79
2023/06/10 04:57:12;;;;;;;2.70;1.30;;;;;;;18.59;80.95;100205.41;10208841;28;96683;-78
2023/06/10 05:02:16;;;;;;;3.47;1.60;;;;;;;18.48;81.13;100218.66;10208681;28;96628;-78
2023/06/10 05:07:19;;;;;;;3.20;1.53;;;;;;;18.37;81.56;100219.41;10208692;28;97301;-78
2023/06/10 05:12:24;;;;;;;2.22;1.40;;;;;;;18.37;81.55;100230.06;10208671;28;97697;-78
2023/06/10 05:17:29;;;;;;;4.22;1.80;;;;;;;18.39;81.34;100228.13;10208217;28;96641;-78
2023/06/10 05:22:34;;;;;;;2.50;1.67;;;;;;;18.44;81.00;100219.81;10207225;28;96785;-78
2023/06/10 05:27:40;;;;;;;;;;;;;;;18.54;80.84;100228.91;10209092;28;96609;-79
2023/06/10 05:32:43;;;;;;;2.03;1.20;;;;;;;18.54;80.24;100226.22;10210832;28;97003;-78
2023/06/10 05:37:46;;;;;;;3.63;1.58;;;;;;;18.48;80.49;100230.19;10214836;28;96666;-79
2023/06/10 05:42:51;;;;;;;2.88;2.00;;;;;;;18.62;79.93;100238.03;10215406;28;96595;-79
2023/06/10 05:47:55;;;;;;;3.08;1.40;;;;;;;18.67;79.79;100243.00;10214394;28;96705;-78
2023/06/10 05:52:58;;;;;;;1.77;1.50;;;;;;;18.70;79.70;100256.97;10214824;28;97437;-78
2023/06/10 05:58:03;;;;;;;2.88;1.35;;;;;;;18.74;79.78;100254.94;10215268;28;96843;-78
2023/06/10 06:03:08;;;;;;;2.38;1.52;;;;;;;18.83;79.70;100262.28;10214338;28;96847;-79
2023/06/10 06:08:13;;;;;;;2.65;1.63;;;;;;;18.90;79.41;100271.53;10214026;28;99524;-78
2023/06/10 06:13:18;;;;;;;2.20;1.40;;;;;;;18.91;79.85;100259.88;10213078;28;96681;-79
2023/06/10 06:18:21;;;;;;;3.90;1.60;;;;;;;18.86;80.17;100262.03;10213955;28;96887;-79
2023/06/10 06:23:25;;;;;;;3.17;1.75;;;;;;;18.73;80.69;100250.59;10213398;28;96939;-79
2023/06/10 06:28:30;;;;;;;2.38;1.60;;;;;;;18.61;81.12;100244.31;10213615;28;97352;-79
2023/06/10 06:33:34;;;;;;;2.33;1.67;;;;;;;18.71;80.97;100261.34;10212907;28;97386;-78
2023/06/10 06:38:37;;;;;;;3.05;2.05;;;;;;;18.87;80.36;100255.75;10253147;28;96568;-79
2023/06/10 06:43:43;;;;;;;3.85;2.17;;;;;;;19.01;80.00;100266.22;10252633;28;97018;-78
2023/06/10 06:49:04;;;;;;;5.47;2.20;;;;;;;19.19;79.14;100273.75;10251106;28;97434;-79
2023/06/10 06:54:07;;;;;;;4.18;2.45;;;;;;;19.63;78.05;100257.03;10252178;28;97476;-79
2023/06/10 06:59:13;;;;;;;3.67;1.88;;;;;;;19.82;77.76;100270.69;10252955;28;96639;-79
2023/06/10 07:04:17;;;;;;;3.05;2.05;;;;;;;19.76;77.85;100276.50;10237123;28;96804;-78
2023/06/10 07:09:20;;;;;;;3.65;1.90;;;;;;;19.82;77.90;100284.03;10212631;28;96697;-78
2023/06/10 07:14:25;;;;;;;3.25;2.28;;;;;;;19.83;77.64;100296.44;10212184;28;97770;-79
2023/06/10 07:19:28;;;;;;;2.55;1.85;;;;;;;19.89;77.87;100295.13;10212046;28;97328;-79
2023/06/10 07:24:31;;;;;;;3.05;1.95;;;;;;;19.95;77.84;100299.97;10211824;28;96906;-79
2023/06/10 07:29:36;;;;;;;2.45;1.98;;;;;;;20.24;77.22;100311.91;10251018;28;96759;-79
2023/06/10 07:34:40;;;;;;;4.13;1.98;;;;;;;20.36;76.88;100305.63;10232075;28;96687;-79
2023/06/10 07:40:00;;;;;;;2.95;1.70;;;;;;;20.45;76.49;100322.75;10207168;28;96703;-79
2023/06/10 07:45:06;;;;;;;3.92;1.95;;;;;;;20.38;76.38;100316.22;10239248;28;97563;-79
2023/06/10 07:50:11;;;;;;;3.60;2.13;;;;;;;20.38;76.26;100319.72;10251333;28;96827;-79
2023/06/10 07:55:14;;;;;;;3.53;2.07;;;;;;;20.56;76.00;100306.72;10249353;28;97249;-79
2023/06/10 08:00:19;;;;;;;5.90;2.50;;;;;;;20.71;75.57;100313.53;10250218;28;96573;-79
2023/06/10 08:05:23;;;;;;;3.05;2.17;;;;;;;21.05;75.22;100310.66;10242395;28;96761;-79
2023/06/10 08:10:26;;;;;;;4.03;2.20;;;;;;;21.12;74.47;100313.72;10210271;28;96754;-79
2023/06/10 08:15:31;;;;;;;3.95;1.67;;;;;;;21.43;73.15;100318.28;10209982;28;97117;-79
2023/06/10 08:20:34;;;;;;;3.17;2.05;;;;;;;21.64;72.16;100312.94;10248994;28;96854;-79
2023/06/10 08:25:38;;;;;;;3.00;2.00;;;;;;;22.00;71.27;100308.03;10249861;28;96606;-79
2023/06/10 08:30:42;;;;;;;4.77;2.30;;;;;;;22.15;70.13;100309.38;10250936;28;96569;-79
2023/06/10 08:35:46;;;;;;;3.38;2.03;;;;;;;22.00;69.93;100301.81;10223680;28;96788;-79
2023/06/10 08:40:50;;;;;;;3.13;2.10;;;;;;;22.00;69.94;100309.84;10209341;28;97632;-79
2023/06/10 08:46:00;;;;;;;2.72;1.83;;;;;;;22.13;69.44;100308.66;10207694;28;97056;-79
2023/06/10 08:51:05;;;;;;;3.42;1.98;;;;;;;22.28;68.72;100309.19;10210143;28;97859;-79
2023/06/10 08:56:10;;;;;;;3.53;1.90;;;;;;;22.60;68.29;100320.59;10208914;28;97780;-79
2023/06/10 09:01:16;;;;;;;2.88;1.45;;;;;;;22.67;67.55;100312.84;10208341;28;97593;-79
2023/06/10 09:06:20;;;;;;;2.83;1.60;;;;;;;22.73;67.19;100318.56;10207845;28;97529;-79
2023/06/10 09:11:24;;;;;;;2.13;1.63;;;;;;;22.47;66.82;100310.09;10209579;28;97532;-79
2023/06/10 09:16:29;;;;;;;4.20;1.47;;;;;;;22.33;66.41;100307.78;10208381;28;96724;-79
2023/06/10 09:21:32;;;;;;;2.42;1.60;;;;;;;22.31;66.29;100304.41;10208902;28;98543;-79
2023/06/10 09:26:35;;;;;;;2.23;1.50;;;;;;;22.48;66.46;100306.44;10208552;28;97165;-79
2023/06/10 09:31:41;;;;;;;3.20;1.60;;;;;;;22.75;66.05;100310.38;10207889;28;97844;-79
2023/06/10 09:36:46;;;;;;;3.35;2.00;;;;;;;22.91;65.97;100308.88;10206637;28;96765;-79
2023/06/10 09:41:49;;;;;;;3.90;1.77;;;;;;;22.87;65.56;100299.41;10208178;28;97331;-79
2023/06/10 09:46:56;;;;;;;2.60;1.70;;;;;;;22.70;65.85;100301.88;10207585;28;96683;-79
2023/06/10 09:51:59;;;;;;;3.17;1.92;;;;;;;22.92;65.22;100305.19;10207781;28;96609;-79
2023/06/10 09:57:08;;;;;;;2.87;1.80;;;;;;;23.23;64.83;100304.13;10206968;28;96773;-79
2023/06/10 10:02:16;;;;;;;3.97;1.80;;;;;;;23.54;63.15;100302.22;10207635;28;96643;-79
2023/06/10 10:07:20;;;;;;;2.78;1.63;;;;;;;23.66;61.91;100296.56;10206376;28;97078;-79
2023/06/10 10:12:25;;;;;;;3.95;1.60;;;;;;;23.97;61.05;100289.16;10207800;28;97696;-79
2023/06/10 10:17:32;;;;;;;5.35;1.98;;;;;;;24.34;60.42;100286.53;10208086;28;96719;-79
2023/06/10 10:22:39;;;;;;;3.17;1.70;;;;;;;24.30;59.98;100286.00;10213665;28;96748;-79
2023/06/10 10:27:46;;;;;;;4.20;1.35;;;;;;;24.28;58.28;100281.72;10212319;28;96585;-80
2023/06/10 10:32:58;;;;;;;3.08;1.40;;;;;;;24.49;58.46;100293.13;10213897;28;97592;-79
2023/06/10 10:38:03;;;;;;;2.55;1.55;;;;;;;24.49;56.76;100287.75;10213179;28;96780;-79
2023/06/10 10:43:08;;;;;;;2.45;1.33;;;;;;;24.72;56.84;100283.69;10212675;28;96840;-79
2023/06/10 10:48:15;;;;;;;2.03;1.20;;;;;;;25.31;55.26;100280.50;10212895;28;97088;-80
2023/06/10 10:53:21;;;;;;;2.38;1.20;;;;;;;25.00;51.46;100279.16;10213497;28;97784;-80
2023/06/10 10:58:26;;;;;;;2.33;1.58;;;;;;;25.68;54.40;100278.47;10212785;28;97553;-80
2023/06/10 11:03:31;;;;;;;2.15;1.52;;;;;;;25.66;53.27;100284.00;10212829;28;96799;-80
2023/06/10 11:08:48;;;;;;;2.95;1.67;;;;;;;25.34;50.00;100285.56;10212288;28;96775;-80
2023/06/10 11:14:08;;;;;;;3.05;1.30;;;;;;;25.53;51.04;100282.72;10212004;28;96806;-80
2023/06/10 11:19:33;;;;;;;3.65;1.63;;;;;;;25.73;51.70;100276.16;10211014;28;96658;-80
2023/06/10 11:24:37;;;;;;;3.72;1.20;;;;;;;25.48;51.90;100271.56;10211710;28;96996;-80
2023/06/10 11:29:40;;;;;;;2.10;0.90;;;;;;;26.10;51.83;100279.50;10211599;28;97178;-80
2023/06/10 11:34:53;;;;;;;3.13;1.30;;;;;;;25.98;49.37;100269.97;10217053;22;96784;-80
2023/06/10 11:39:57;;;;;;;2.67;1.23;;;;;;;26.33;51.29;100272.56;10214240;28;97127;-80
2023/06/10 11:45:02;;;;;;;1.73;1.27;;;;;;;26.22;50.34;100270.13;10251301;28;96678;-80
2023/06/10 11:50:07;;;;;;;1.75;1.15;;;;;;;26.69;50.45;100270.56;10251303;28;96650;-80
2023/06/10 11:55:11;;;;;;;2.10;0.95;;;;;;;26.91;50.67;100268.13;10251749;28;96593;-80
2023/06/10 12:00:15;;;;;;;;;;;;;;;25.71;49.93;100264.72;10250737;28;96561;-80
2023/06/10 12:05:20;;;;;;;2.70;0.93;;;;;;;26.59;50.85;100267.16;10250639;28;97994;-81
2023/06/10 12:10:23;;;;;;;1.55;1.20;;;;;;;26.56;49.19;100264.75;10249776;28;96830;-81
2023/06/10 12:15:29;;;;;;;1.83;1.17;;;;;;;25.86;49.94;100264.00;10249835;28;97778;-81
2023/06/10 12:20:37;;;;;;;1.70;0.93;;;;;;;26.18;49.94;100268.75;10250356;28;96894;-81
2023/06/10 12:25:51;;;;;;;2.65;1.10;;;;;;;26.33;49.56;100261.78;10249879;28;96726;-81
2023/06/10 12:31:07;;;;;;;1.93;1.30;;;;;;;26.36;48.99;100268.69;10246526;28;96896;-81
2023/06/10 12:36:17;;;;;;;1.77;1.20;;;;;;;26.54;47.99;100253.28;10209013;28;98061;-81
2023/06/10 12:41:23;;;;;;;2.28;0.90;;;;;;;26.60;49.13;100250.78;10208662;28;96922;-81
2023/06/10 12:46:26;;;;;;;2.85;1.10;;;;;;;26.39;49.17;100250.34;10209960;28;96722;-81
2023/06/10 12:51:31;;;;;;;1.10;1.00;;;;;;;25.99;50.59;100241.16;10210063;28;97665;-80
2023/06/10 12:56:34;;;;;;;1.50;1.10;;;;;;;25.34;51.39;100243.31;10209243;28;96706;-80
2023/06/10 13:01:55;;;;;;;1.80;1.20;;;;;;;25.64;51.21;100245.59;10204349;28;97111;-80
2023/06/10 13:07:00;;;;;;;1.80;1.13;;;;;;;24.92;51.72;100252.94;10209086;28;97919;-80
2023/06/10 13:12:04;;;;;;;2.88;1.40;;;;;;;24.57;53.20;100256.41;10208661;28;97219;-80
2023/06/10 13:17:08;;;;;;;2.10;1.30;;;;;;;24.64;53.06;100262.88;10208682;28;96774;-80
2023/06/10 13:22:13;;;;;;;2.22;1.30;;;;;;;24.78;53.14;100267.78;10209106;28;96656;-80
2023/06/10 13:27:16;;;;;;;3.03;1.73;;;;;;;25.54;51.88;100257.44;10208225;28;96854;-80
2023/06/10 13:32:20;;;;;;;4.40;1.30;;;;;;;25.81;52.23;100252.00;10211259;28;96954;-80
2023/06/10 13:37:25;;;;;;;;;;;;;;;25.84;51.19;100251.66;10220592;28;96780;-80
2023/06/10 13:42:29;;;;;;;2.05;1.30;;;;;;;25.54;51.17;100252.91;10208643;28;96787;-80
2023/06/10 13:47:50;;;;;;;2.17;1.23;;;;;;;25.55;53.39;100253.78;10201346;28;97079;-80
2023/06/10 13:52:55;;;;;;;3.03;1.83;;;;;;;25.30;54.31;100265.31;10207915;28;97801;-80
2023/06/10 13:57:58;;;;;;;4.88;1.58;;;;;;;25.25;55.01;100259.53;10215029;28;97956;-80
2023/06/10 14:03:03;;;;;;;3.35;1.58;;;;;;;25.95;54.44;100267.59;10214263;28;96991;-80
2023/06/10 14:08:08;;;;;;;2.30;1.60;;;;;;;25.46;54.77;100265.47;10214165;28;96977;-80
2023/06/10 14:13:11;;;;;;;3.38;1.70;;;;;;;25.17;55.93;100267.56;10214434;28;96873;-80
2023/06/10 14:18:14;;;;;;;3.70;1.63;;;;;;;24.80;56.75;100273.84;10214030;28;97430;-80
2023/06/10 14:23:19;;;;;;;3.20;1.65;;;;;;;24.98;56.69;100278.44;10213485;28;96745;-80
2023/06/10 14:28:23;;;;;;;3.33;1.70;;;;;;;24.94;56.00;100272.50;10213993;28;96824;-80
2023/06/10 14:33:27;;;;;;;5.03;1.80;;;;;;;24.88;56.51;100277.66;10213548;28;98149;-80
2023/06/10 14:38:32;;;;;;;3.55;1.92;;;;;;;24.56;56.60;100276.25;10213538;28;96928;-80
2023/06/10 14:43:35;;;;;;;3.95;1.60;;;;;;;24.43;57.93;100288.31;10212124;28;97410;-80
2023/06/10 14:48:38;;;;;;;3.80;1.80;;;;;;;24.68;57.56;100279.59;10229035;28;97370;-80
2023/06/10 14:53:43;;;;;;;2.90;1.50;;;;;;;25.24;57.12;100287.50;10253300;28;96710;-80
2023/06/10 14:58:47;;;;;;;2.58;1.40;;;;;;;25.67;56.59;100284.88;10253212;28;96828;-81
2023/06/10 15:03:50;;;;;;;2.77;1.43;;;;;;;25.07;57.63;100285.63;10251671;28;96911;-80
2023/06/10 15:08:55;;;;;;;3.87;1.83;;;;;;;25.48;57.17;100279.66;10252793;28;96851;-81
2023/06/10 15:13:58;;;;;;;3.90;1.92;;;;;;;26.04;56.23;100284.69;10252825;28;96694;-80
2023/06/10 15:19:02;;;;;;;4.68;2.10;;;;;;;25.71;56.34;100286.28;10253562;28;96525;-81
2023/06/10 15:24:08;;;;;;;2.88;1.30;;;;;;;25.55;57.08;100286.94;10251358;28;96635;-81
2023/06/10 15:29:11;;;;;;;3.95;1.70;;;;;;;24.83;57.75;100285.31;10252232;28;96721;-80
2023/06/10 15:34:15;;;;;;;3.13;1.35;;;;;;;24.84;57.80;100272.53;10224858;28;96713;-80
2023/06/10 15:39:20;;;;;;;3.40;1.60;;;;;;;24.71;57.51;100277.44;10211815;28;96830;-80
2023/06/10 15:44:23;;;;;;;5.32;1.50;;;;;;;24.75;57.87;100278.00;10210967;28;96828;-81
2023/06/10 15:49:26;;;;;;;3.67;1.50;;;;;;;24.83;57.48;100277.25;10211595;28;96778;-81
2023/06/10 15:54:31;;;;;;;3.23;1.60;;;;;;;24.86;57.54;100285.88;10211058;28;97807;-81
2023/06/10 15:59:34;;;;;;;3.60;1.42;;;;;;;24.78;57.28;100283.06;10250141;28;96760;-81
2023/06/10 16:04:38;;;;;;;4.13;1.53;;;;;;;24.99;56.81;100288.19;10251188;28;96840;-81
2023/06/10 16:09:42;;;;;;;4.13;1.80;;;;;;;25.13;55.68;100266.16;10251625;28;97793;-81
2023/06/10 16:14:46;;;;;;;3.08;1.65;;;;;;;25.27;55.49;100266.50;10249747;28;96967;-80
2023/06/10 16:19:49;;;;;;;2.95;1.38;;;;;;;25.26;55.65;100259.38;10249970;28;97618;-81
2023/06/10 16:24:54;;;;;;;3.15;1.40;;;;;;;24.99;55.42;100259.47;10249123;28;96753;-81
2023/06/10 16:29:58;;;;;;;3.80;1.73;;;;;;;24.80;55.82;100271.16;10249271;28;96703;-81
2023/06/10 16:35:02;;;;;;;2.20;1.40;;;;;;;24.72;55.62;100268.34;10248943;28;96908;-81
2023/06/10 16:40:07;;;;;;;;;;;;;;;24.80;53.48;100268.47;10250492;28;96583;-81
2023/06/10 16:45:11;;;;;;;2.15;1.40;;;;;;;24.74;55.35;100266.38;10249683;28;96732;-81
2023/06/10 16:50:15;;;;;;;1.60;1.20;;;;;;;24.57;54.63;100261.78;10211944;28;97130;-81
2023/06/10 16:55:20;;;;;;;4.40;1.23;;;;;;;24.74;54.69;100268.22;10208929;28;96723;-81
2023/06/10 17:00:23;;;;;;;2.75;1.27;;;;;;;24.89;54.09;100255.09;10209721;28;96586;-81
2023/06/10 17:05:27;;;;;;;2.70;1.30;;;;;;;24.92;53.00;100260.16;10208945;28;97049;-81
2023/06/10 17:10:31;;;;;;;2.72;1.38;;;;;;;25.14;53.61;100254.41;10208680;28;96734;-81
2023/06/10 17:15:35;;;;;;;1.70;1.00;;;;;;;24.95;53.82;100251.81;10207447;28;96805;-81
2023/06/10 17:20:39;;;;;;;2.80;1.30;;;;;;;24.86;53.56;100258.97;10208442;28;96817;-81
2023/06/10 17:25:43;;;;;;;5.07;1.53;;;;;;;24.97;53.44;100241.72;10208063;28;96799;-80
2023/06/10 17:30:47;;;;;;;3.42;1.30;;;;;;;24.94;52.52;100250.09;10221117;28;96701;-80
2023/06/10 17:35:51;;;;;;;2.78;1.10;;;;;;;25.01;53.15;100248.53;10220885;28;96879;-81
2023/06/10 17:40:56;;;;;;;4.38;1.10;;;;;;;24.88;53.55;100245.34;10221958;28;96974;-81
2023/06/10 17:45:59;;;;;;;3.20;1.80;;;;;;;24.74;54.34;100246.66;10220992;28;96802;-80
2023/06/10 17:51:02;;;;;;;2.38;1.30;;;;;;;24.78;54.44;100265.09;10221767;28;96688;-80
2023/06/10 17:56:07;;;;;;;2.60;1.33;;;;;;;24.64;54.23;100268.28;10221583;28;96661;-81
2023/06/10 18:01:10;;;;;;;2.38;1.20;;;;;;;24.44;54.37;100269.38;10220836;28;96917;-80
2023/06/10 18:06:15;;;;;;;3.65;1.40;;;;;;;24.49;54.66;100272.47;10218849;28;97318;-81
2023/06/10 18:11:21;;;;;;;2.75;1.33;;;;;;;24.50;54.47;100279.53;10220712;28;97685;-80
2023/06/10 18:16:26;;;;;;;3.80;1.58;;;;;;;24.36;54.82;100277.31;10220596;28;97717;-81
2023/06/10 18:21:30;;;;;;;2.70;1.50;;;;;;;24.30;55.27;100269.84;10220403;28;97737;-81
2023/06/10 18:26:34;;;;;;;2.20;1.17;;;;;;;24.39;55.21;100274.31;10220218;28;96932;-81
2023/06/10 18:31:38;;;;;;;4.28;1.50;;;;;;;24.01;54.88;100277.13;10223347;28;96654;-81
2023/06/10 18:36:41;;;;;;;4.00;1.30;;;;;;;23.84;56.02;100280.53;10186471;28;97799;-81
2023/06/10 18:41:46;;;;;;;3.05;1.27;;;;;;;23.66;57.05;100277.75;10174240;28;97664;-81
2023/06/10 18:46:50;;;;;;;2.03;1.20;;;;;;;23.58;57.42;100287.50;10209176;28;97501;-81
2023/06/10 18:51:53;;;;;;;3.63;1.37;;;;;;;23.37;57.88;100287.59;10253277;28;96649;-80
2023/06/10 18:56:58;;;;;;;3.37;1.40;;;;;;;23.35;58.29;100297.66;10252212;28;96809;-81
2023/06/10 19:02:02;;;;;;;3.35;1.30;;;;;;;23.33;58.34;100298.78;10252190;28;96995;-80
2023/06/10 19:07:06;;;;;;;1.87;1.17;;;;;;;23.18;58.84;100297.50;10252416;28;96967;-81
2023/06/10 19:12:11;;;;;;;;;;;;;;;23.10;59.57;100302.69;10253073;28;97982;-81
2023/06/10 19:17:16;;;;;;;3.33;1.70;;;;;;;22.97;59.64;100305.66;10252807;28;96593;-81
2023/06/10 19:22:19;;;;;;;3.85;1.40;;;;;;;22.85;59.94;100314.81;10251141;28;96736;-81
2023/06/10 19:27:24;;;;;;;2.22;1.30;;;;;;;22.85;60.27;100322.88;10251989;28;96808;-81
2023/06/10 19:32:28;;;;;;;3.42;1.42;;;;;;;22.85;60.52;100328.22;10233535;28;96744;-81
2023/06/10 19:37:31;;;;;;;3.53;1.60;;;;;;;22.76;60.75;100331.69;10187709;28;97792;-81
2023/06/10 19:42:37;;;;;;;3.23;1.27;;;;;;;22.61;61.19;100335.69;10211147;28;97548;-81
2023/06/10 19:47:40;;;;;;;5.18;1.27;;;;;;;22.57;61.15;100334.28;10210037;28;96713;-81
2023/06/10 19:52:43;;;;;;;4.13;1.63;;;;;;;22.45;61.55;100344.25;10210298;28;97010;-81
2023/06/10 19:57:48;;;;;;;3.07;1.50;;;;;;;22.41;61.78;100345.50;10210913;28;96518;-81
2023/06/10 20:02:52;;;;;;;4.82;2.05;;;;;;;22.29;61.74;100353.75;10210655;28;96759;-81
2023/06/10 20:07:55;;;;;;;7.30;2.30;;;;;;;22.22;62.18;100360.63;10210282;28;96770;-81
2023/06/10 20:13:00;;;;;;;4.27;2.60;;;;;;;22.18;62.49;100361.88;10211227;28;96795;-81
2023/06/10 20:18:03;;;;;;;7.70;3.95;;;;;;;22.07;62.09;100376.19;10210016;28;97126;-81
2023/06/10 20:23:07;;;;;;;8.43;3.92;;;;;;;22.10;62.28;100367.91;10210861;28;96751;-81
2023/06/10 20:28:12;;;;;;;5.53;2.60;;;;;;;21.99;62.99;100376.00;10210501;28;96795;-81
2023/06/10 20:33:15;;;;;;;4.60;2.28;;;;;;;21.91;63.71;100386.47;10225544;28;97066;-81
2023/06/10 20:38:19;;;;;;;4.73;2.60;;;;;;;21.81;63.76;100384.69;10248711;28;96853;-81
2023/06/10 20:43:24;;;;;;;5.03;2.90;;;;;;;21.73;64.33;100387.19;10249946;28;96835;-81
2023/06/10 20:48:27;;;;;;;7.93;3.63;;;;;;;21.67;64.77;100380.50;10210207;28;96719;-81
2023/06/10 20:53:31;;;;;;;7.30;3.30;;;;;;;21.47;65.26;100397.34;10209566;28;97161;-81
2023/06/10 20:58:35;;;;;;;4.40;2.63;;;;;;;21.44;65.74;100405.63;10209222;28;96565;-81
2023/06/10 21:03:39;;;;;;;3.95;2.30;;;;;;;21.27;66.41;100419.56;10208394;28;97083;-81
2023/06/10 21:08:42;;;;;;;3.53;1.90;;;;;;;21.17;66.50;100427.47;10208527;28;96851;-81
2023/06/10 21:13:47;;;;;;;3.08;2.05;;;;;;;21.10;67.00;100433.41;10209349;28;96794;-81
2023/06/10 21:18:50;;;;;;;4.70;2.17;;;;;;;20.99;67.17;100433.41;10208789;28;96999;-81
2023/06/10 21:23:54;;;;;;;4.70;2.23;;;;;;;20.91;67.51;100433.16;10208659;28;96916;-81
2023/06/10 21:28:59;;;;;;;4.82;2.20;;;;;;;20.85;67.99;100436.31;10207545;28;97119;-81
2023/06/10 21:34:03;;;;;;;3.47;1.85;;;;;;;20.85;67.85;100436.31;10206036;28;97887;-80
2023/06/10 21:39:06;;;;;;;2.70;1.80;;;;;;;20.78;68.34;100435.09;10244364;28;96629;-81
2023/06/10 21:44:11;;;;;;;3.70;2.20;;;;;;;20.62;69.02;100439.97;10248424;28;97876;-81
2023/06/10 21:49:15;;;;;;;2.75;1.63;;;;;;;20.58;69.16;100438.50;10247794;28;97073;-81
2023/06/10 21:54:18;;;;;;;5.40;2.07;;;;;;;20.49;69.43;100431.16;10246938;28;96847;-81
2023/06/10 21:59:23;;;;;;;4.00;2.03;;;;;;;20.39;69.85;100426.53;10247701;28;96760;-81
2023/06/10 22:04:26;;;;;;;3.45;2.08;;;;;;;20.34;69.81;100431.38;10248279;28;97069;-81
2023/06/10 22:09:30;;;;;;;3.10;1.90;;;;;;;20.24;69.96;100433.03;10246548;28;98051;-81
2023/06/10 22:14:35;;;;;;;2.83;1.77;;;;;;;20.38;69.59;100435.53;10249583;28;96679;-81
2023/06/10 22:19:41;;;;;;;3.10;2.10;;;;;;;20.37;69.96;100435.66;10253596;28;96580;-81
2023/06/10 22:24:49;;;;;;;5.05;1.98;;;;;;;19.97;71.48;100431.59;10253894;28;97446;-81
2023/06/10 22:29:54;;;;;;;6.40;2.17;;;;;;;20.27;70.24;100431.97;10253243;28;96803;-81
2023/06/10 22:34:57;;;;;;;5.35;2.10;;;;;;;20.35;70.19;100432.25;10223338;28;96838;-81
2023/06/10 22:40:01;;;;;;;4.18;2.08;;;;;;;20.18;70.74;100440.66;10213488;28;97895;-81
2023/06/10 22:45:07;;;;;;;3.45;2.20;;;;;;;20.16;70.75;100438.13;10213381;28;97104;-81
2023/06/10 22:50:11;;;;;;;3.53;1.65;;;;;;;20.05;70.97;100437.22;10213228;28;96855;-81
2023/06/10 22:55:14;;;;;;;3.23;2.00;;;;;;;19.94;71.48;100435.34;10213540;28;96766;-81
2023/06/10 23:00:19;;;;;;;2.75;1.80;;;;;;;19.88;71.60;100433.16;10212748;28;96694;-81
2023/06/10 23:05:23;;;;;;;5.20;2.08;;;;;;;19.83;71.46;100429.97;10212006;28;96849;-81
2023/06/10 23:10:26;;;;;;;4.43;1.90;;;;;;;19.86;71.78;100418.19;10211592;28;96610;-81
2023/06/10 23:15:31;;;;;;;4.50;2.25;;;;;;;19.77;71.80;100417.06;10212106;28;97337;-81
2023/06/10 23:20:35;;;;;;;2.92;1.63;;;;;;;19.76;71.72;100414.50;10212882;28;96834;-81
2023/06/10 23:25:38;;;;;;;3.20;1.90;;;;;;;19.71;72.00;100414.88;10211567;28;96767;-81